Handy, North Carolina
Current Conditions -  °F | °C
As of 12:15 PM on Wednesday 26 Nov 2014 (Local Time) from KHBI Reporting Station
Light Rain Light Rain  
Wind Chill: 39°   Ceiling: 1200
Heat Index: 43°   Visibility: 7mi
Dew Point: 43°   Wind: 7mph
Humidity: 100%   Direction: 310°NW
Pressure: 30"   Gusts: NA
Location:  35.6015°N, 80.0858°W
Report Text: KHBI 261715Z AUTO 31006KT 7SM -RA SCT009 BKN012 OVC022 06/06 A3000 RMK AO2 P0001 T00600060
Loading
Personal Weather Stations






























Interactive Weather Map New forecast layout! Learn more

10-Day Weather Forecast

Advertisements
Track Severe Weather on mobile